Kingsville Naval Air Station
KNQI : now visible

Airfield :











YOU CAN JOIN US ON...

 
LOGIN :

Register | Disclaimer

   EN    FR    IT 

 









Legend :    VFR   Marginal VFR   IFR   Intensive IFR   Very Intensive IFR
Visi :
Ceiling :
>= 8 km
>= 3000ft
5 to 8 km
1000 to 3000 ft
1500m to 5 km
500 to 1000 ft
800 to 1500m
200 to 500 ft
< 800m
< 200 ft
Symbols :   Thunderstorms  Fog  Heavy snow  Heavy precipitations  Wind > 20 kt






- Airport Elevation : 50 ft


KNQI - Kingsville Naval Air Station

CURRENT METAR :
  • 180656Z AUTO 15009KT 5SM BR CLR 21/20 A2982 RMK AO2 SLP093 T02110200 $

EXPIRED METARs :
  • 180556Z AUTO 14010KT 4SM BR FEW014 21/20 A2983 RMK AO2 SLP099 T02110200 10256 20211 403280200 51002 $
  • 180456Z AUTO 14008KT 4SM BR FEW008 BKN014 21/20 A2983 RMK AO2 SLP098 T02110200 $
  • 180451Z AUTO 14010KT 4SM BR BKN014 21/20 A2983 RMK AO2 $

TAF TAF KNQI
Valid from the 17 at 23:00 until the 18 at 23:00 UTC


1723/1823 15015G25KT 9999 SCT050 BKN200 QNH2975INS
BECMG 1801/1803 9000 BR BKN010 OVC200 QNH2980INS
BECMG 1806/1808 15010KT 6000 BR BKN015 OVC200 QNH2978INS AUTOMATED SENSOR METWATCH 1723 TIL 1812 T20/1812Z T27/1820Z FN00085



MET'MAP, your aeronautical weather chart ! - Copyright ORBIFLY December 2007 - Disclaimer

ORBIFLY MET'MAP TEAM :

Programming & Development : Alexandra Zaïnal
Concept & original design : Baudouin d'Aumeries
Assistance for programming : Marc-Olivier Méhu
Technical & hardware support : Manuel Goepfert

Contact : metmap@orbifly.com




SOURCES & CREDITS :

   NOAA       Earth
Advisory